createdAt,value
2017-11-29T00:00:21.769Z,61.48
2017-11-29T00:02:47.994Z,62.57
2017-11-29T00:05:14.383Z,62.27
2017-11-29T00:07:40.797Z,61.99
2017-11-29T00:10:07.224Z,60.50
2017-11-29T00:12:33.594Z,60.70
2017-11-29T00:15:00.051Z,60.83
2017-11-29T00:17:26.530Z,61.26
2017-11-29T00:19:53.005Z,60.87
2017-11-29T00:22:19.490Z,60.73
2017-11-29T00:24:46.005Z,61.31
2017-11-29T00:27:12.435Z,60.77
2017-11-29T00:29:38.902Z,60.77
2017-11-29T00:32:05.334Z,60.69
2017-11-29T00:34:31.790Z,60.84
2017-11-29T00:36:58.362Z,60.73
2017-11-29T00:39:24.839Z,60.48
2017-11-29T00:41:51.319Z,60.54
2017-11-29T00:44:17.903Z,60.66
2017-11-29T00:46:44.340Z,61.44
2017-11-29T00:49:10.792Z,60.78
2017-11-29T00:51:37.305Z,60.23
2017-11-29T00:54:03.777Z,59.88
2017-11-29T00:56:30.226Z,59.98
2017-11-29T00:58:56.914Z,62.18
2017-11-29T01:01:23.377Z,60.11
2017-11-29T01:03:49.849Z,59.55
2017-11-29T01:06:16.365Z,61.40
2017-11-29T01:08:42.790Z,59.42
2017-11-29T01:11:09.230Z,59.16
2017-11-29T01:13:35.702Z,59.25
2017-11-29T01:16:02.159Z,58.68
2017-11-29T01:18:28.578Z,58.90
2017-11-29T01:20:55.221Z,58.48
2017-11-29T01:23:21.758Z,58.49
2017-11-29T01:25:48.293Z,58.21
2017-11-29T01:28:14.780Z,61.57
2017-11-29T01:30:41.195Z,58.43
2017-11-29T01:33:07.633Z,59.25
2017-11-29T01:35:34.098Z,59.85
2017-11-29T01:38:00.571Z,60.25
2017-11-29T01:40:26.982Z,57.93
2017-11-29T01:42:53.610Z,57.36
2017-11-29T01:45:20.068Z,57.45
2017-11-29T01:47:46.801Z,57.44
2017-11-29T01:50:13.385Z,57.77
2017-11-29T01:52:39.825Z,59.28
2017-11-29T01:55:06.350Z,57.75
2017-11-29T01:57:32.886Z,57.87
2017-11-29T01:59:59.357Z,57.71
2017-11-29T02:02:25.793Z,58.24
2017-11-29T02:04:52.311Z,58.98
2017-11-29T02:07:18.736Z,58.45
2017-11-29T02:09:45.182Z,58.64
2017-11-29T02:12:11.650Z,57.74
2017-11-29T02:14:38.063Z,57.54
2017-11-29T02:17:04.499Z,57.93
2017-11-29T02:19:31.034Z,58.84
2017-11-29T02:21:57.694Z,59.27
2017-11-29T02:24:24.433Z,59.34
2017-11-29T02:26:51.031Z,59.94
2017-11-29T02:29:17.606Z,58.65
2017-11-29T02:31:44.180Z,58.45
2017-11-29T02:34:10.758Z,59.78
2017-11-29T02:36:37.344Z,65.15
2017-11-29T02:39:03.970Z,60.19
2017-11-29T02:41:42.546Z,59.17
2017-11-29T02:44:08.983Z,58.67
2017-11-29T02:46:35.577Z,60.39
2017-11-29T02:49:02.130Z,59.90
2017-11-29T02:51:28.668Z,59.50
2017-11-29T02:53:55.253Z,59.51
2017-11-29T02:56:21.890Z,60.25
2017-11-29T02:58:48.501Z,60.61
2017-11-29T03:01:15.063Z,60.62
2017-11-29T03:03:41.651Z,60.62
2017-11-29T03:06:08.170Z,60.02
2017-11-29T03:08:34.649Z,61.05
2017-11-29T03:11:01.210Z,61.54
2017-11-29T03:13:27.693Z,61.63
2017-11-29T03:15:54.116Z,62.32
2017-11-29T03:18:20.613Z,62.56
2017-11-29T03:20:47.026Z,62.63
2017-11-29T03:23:13.578Z,63.25
2017-11-29T03:25:40.074Z,63.54
2017-11-29T03:28:06.546Z,63.12
2017-11-29T03:30:32.964Z,62.79
2017-11-29T03:32:59.516Z,63.33
2017-11-29T03:35:25.935Z,62.49
2017-11-29T03:37:52.391Z,63.01
2017-11-29T03:40:18.890Z,63.28
2017-11-29T03:42:45.335Z,63.21
2017-11-29T03:45:11.759Z,63.07
2017-11-29T03:47:38.246Z,63.60
2017-11-29T03:50:04.754Z,63.70
2017-11-29T03:52:31.161Z,63.42
2017-11-29T03:54:57.617Z,63.92
2017-11-29T03:57:24.441Z,64.54
2017-11-29T03:59:50.846Z,64.78
2017-11-29T04:02:17.234Z,64.74
2017-11-29T04:04:43.604Z,64.68
2017-11-29T04:07:10.101Z,63.82
2017-11-29T04:09:36.627Z,64.09
2017-11-29T04:12:03.037Z,64.63
2017-11-29T04:14:29.431Z,64.34
2017-11-29T04:16:55.923Z,64.68
2017-11-29T04:19:22.373Z,64.81
2017-11-29T04:21:48.900Z,65.11
2017-11-29T04:24:15.337Z,65.02
2017-11-29T04:26:41.866Z,64.33
2017-11-29T04:29:08.278Z,63.93
2017-11-29T04:31:34.682Z,64.30
2017-11-29T04:34:01.009Z,64.30
2017-11-29T04:36:27.353Z,64.47
2017-11-29T04:38:53.729Z,64.83
2017-11-29T04:41:20.054Z,63.87
2017-11-29T04:43:46.457Z,63.74
2017-11-29T04:46:12.837Z,63.59
2017-11-29T04:48:39.297Z,63.49
2017-11-29T04:51:05.751Z,64.19
2017-11-29T04:53:32.266Z,63.86
2017-11-29T04:55:58.706Z,64.38
2017-11-29T04:58:25.116Z,63.72
2017-11-29T05:00:51.662Z,63.83
2017-11-29T05:03:18.140Z,64.38
2017-11-29T05:05:44.621Z,64.73
2017-11-29T05:08:11.103Z,64.33
2017-11-29T05:10:37.482Z,64.80
2017-11-29T05:13:03.887Z,65.72
2017-11-29T05:15:30.382Z,65.61
2017-11-29T05:17:56.785Z,64.87
2017-11-29T05:20:23.257Z,65.37
2017-11-29T05:22:49.745Z,65.35
2017-11-29T05:25:16.161Z,65.13
2017-11-29T05:27:42.635Z,65.16
2017-11-29T05:30:09.151Z,64.65
2017-11-29T05:32:35.601Z,66.51
2017-11-29T05:35:02.061Z,64.53
2017-11-29T05:37:28.511Z,65.15
2017-11-29T05:39:54.929Z,64.33
2017-11-29T05:42:21.375Z,64.31
2017-11-29T05:44:47.866Z,64.83
2017-11-29T05:47:14.293Z,65.09
2017-11-29T05:49:40.744Z,65.41
2017-11-29T05:52:07.213Z,64.92
2017-11-29T05:54:33.653Z,64.75
2017-11-29T05:57:00.081Z,65.25
2017-11-29T05:59:26.508Z,65.75
2017-11-29T06:01:52.942Z,65.76
2017-11-29T06:04:19.330Z,66.13
2017-11-29T06:06:45.821Z,66.52
2017-11-29T06:09:12.470Z,66.92
2017-11-29T06:11:38.892Z,66.76
2017-11-29T06:14:05.398Z,66.91
2017-11-29T06:16:31.948Z,66.93
2017-11-29T06:18:58.519Z,66.93
2017-11-29T06:21:25.086Z,66.83
2017-11-29T06:23:51.558Z,67.37
2017-11-29T06:26:18.099Z,67.15
2017-11-29T06:28:44.662Z,67.00
2017-11-29T06:31:11.277Z,67.02
2017-11-29T06:33:37.807Z,67.03
2017-11-29T06:36:04.319Z,66.42
2017-11-29T06:38:30.984Z,66.53
2017-11-29T06:40:57.458Z,66.74
2017-11-29T06:43:23.838Z,65.80
2017-11-29T06:45:50.165Z,65.98
2017-11-29T06:48:16.498Z,66.17
2017-11-29T06:50:42.945Z,66.80
2017-11-29T06:53:09.278Z,66.48
2017-11-29T06:55:35.748Z,66.19
2017-11-29T06:58:02.295Z,65.99
2017-11-29T07:00:28.700Z,66.36
2017-11-29T07:02:55.118Z,66.39
2017-11-29T07:05:21.542Z,65.87
2017-11-29T07:07:47.957Z,65.75
2017-11-29T07:10:16.434Z,65.42
2017-11-29T07:12:43.305Z,65.66
2017-11-29T07:15:09.654Z,65.78
2017-11-29T07:17:35.990Z,66.08
2017-11-29T07:20:02.393Z,66.07
2017-11-29T07:22:28.770Z,65.97
2017-11-29T07:24:55.181Z,66.23
2017-11-29T07:27:21.554Z,65.78
2017-11-29T07:29:47.880Z,69.01
2017-11-29T07:32:14.253Z,69.53
2017-11-29T07:34:40.744Z,67.64
2017-11-29T07:37:07.144Z,68.23
2017-11-29T07:39:33.506Z,63.37
2017-11-29T07:41:59.873Z,67.09
2017-11-29T07:44:26.265Z,66.46
2017-11-29T07:46:52.614Z,65.73
2017-11-29T07:49:19.056Z,61.86
2017-11-29T07:51:45.401Z,61.38
2017-11-29T07:54:11.726Z,59.79
2017-11-29T07:56:38.096Z,63.78
2017-11-29T07:59:04.430Z,63.51
2017-11-29T08:01:30.770Z,64.20
2017-11-29T08:03:57.174Z,64.24
2017-11-29T08:06:23.537Z,63.51
2017-11-29T08:08:49.910Z,62.63
2017-11-29T08:11:16.288Z,60.54
2017-11-29T08:13:42.645Z,58.51
2017-11-29T08:16:09.018Z,61.52
2017-11-29T08:18:35.376Z,58.54
2017-11-29T08:21:01.746Z,61.73
2017-11-29T08:23:28.094Z,63.27
2017-11-29T08:25:54.634Z,62.60
2017-11-29T08:28:21.116Z,60.18
2017-11-29T08:30:47.735Z,58.60
2017-11-29T08:33:14.262Z,61.01
2017-11-29T08:35:40.695Z,59.59
2017-11-29T08:38:07.219Z,57.14
2017-11-29T08:40:33.866Z,55.68
2017-11-29T08:43:00.477Z,60.28
2017-11-29T08:45:26.894Z,58.75
2017-11-29T08:47:53.428Z,56.96
2017-11-29T08:50:19.917Z,57.63
2017-11-29T08:52:46.345Z,59.53
2017-11-29T08:55:12.905Z,58.75
2017-11-29T08:57:39.387Z,61.44
2017-11-29T09:00:05.806Z,58.05
2017-11-29T09:02:32.282Z,59.08
2017-11-29T09:04:58.737Z,57.98
2017-11-29T09:07:25.283Z,60.18
2017-11-29T09:09:51.766Z,57.62
2017-11-29T09:12:18.183Z,57.41
2017-11-29T09:14:44.817Z,59.27
2017-11-29T09:17:11.290Z,54.58
2017-11-29T09:19:37.824Z,55.25
2017-11-29T09:22:04.290Z,55.34
2017-11-29T09:24:30.768Z,57.82
2017-11-29T09:26:58.098Z,56.31
2017-11-29T09:29:24.542Z,59.77
2017-11-29T09:31:51.286Z,57.66
2017-11-29T09:34:17.742Z,57.41
2017-11-29T09:36:44.192Z,55.09
2017-11-29T09:39:10.691Z,53.82
2017-11-29T09:41:37.337Z,55.24
2017-11-29T09:44:03.798Z,57.16
2017-11-29T09:46:30.246Z,57.14
2017-11-29T09:48:56.708Z,56.06
2017-11-29T09:51:23.158Z,60.41
2017-11-29T09:53:49.689Z,54.86
2017-11-29T09:56:16.201Z,54.85
2017-11-29T09:58:42.756Z,54.73
2017-11-29T10:01:09.242Z,56.59
2017-11-29T10:03:35.681Z,56.18
2017-11-29T10:06:02.174Z,56.05
2017-11-29T10:08:28.646Z,54.83
2017-11-29T10:10:55.081Z,55.50
2017-11-29T10:13:21.535Z,56.11
2017-11-29T10:15:48.020Z,56.32
2017-11-29T10:18:14.590Z,56.65
2017-11-29T10:20:41.025Z,55.68
2017-11-29T10:23:07.498Z,56.82
2017-11-29T10:25:33.982Z,59.03
2017-11-29T10:28:00.422Z,54.60
2017-11-29T10:30:27.090Z,55.76
2017-11-29T10:32:53.554Z,57.57
2017-11-29T10:35:20.051Z,58.40
2017-11-29T10:37:46.602Z,57.17
2017-11-29T10:40:13.116Z,54.08
2017-11-29T10:42:39.552Z,58.50
2017-11-29T10:45:06.170Z,54.46
2017-11-29T10:47:32.597Z,55.63
2017-11-29T10:49:59.037Z,55.29
2017-11-29T10:52:25.523Z,53.04
2017-11-29T10:54:51.950Z,56.34
2017-11-29T10:57:18.408Z,55.71
2017-11-29T10:59:44.864Z,57.46
2017-11-29T11:02:11.328Z,54.93
2017-11-29T11:04:37.791Z,56.32
2017-11-29T11:07:04.652Z,57.37
2017-11-29T11:09:31.328Z,52.84
2017-11-29T11:11:57.988Z,54.08
2017-11-29T11:14:24.465Z,56.58
2017-11-29T11:16:50.897Z,57.28
2017-11-29T11:19:17.331Z,52.09
2017-11-29T11:21:43.833Z,51.84
2017-11-29T11:24:10.359Z,57.25
2017-11-29T11:26:36.853Z,52.43
2017-11-29T11:29:03.396Z,52.92
2017-11-29T11:31:29.837Z,55.28
2017-11-29T11:33:56.323Z,53.13
2017-11-29T11:36:22.850Z,51.93
2017-11-29T11:38:49.353Z,51.85
2017-11-29T11:41:15.851Z,52.42
2017-11-29T11:43:42.328Z,52.50
2017-11-29T11:46:08.787Z,55.29
2017-11-29T11:48:35.231Z,54.05
2017-11-29T11:51:01.707Z,52.92
2017-11-29T11:53:28.269Z,52.28
2017-11-29T11:55:54.722Z,53.87
2017-11-29T11:58:21.214Z,53.82
2017-11-29T12:00:47.716Z,53.71
2017-11-29T12:03:14.258Z,54.18
2017-11-29T12:05:40.746Z,53.27
2017-11-29T12:08:07.165Z,53.26
2017-11-29T12:10:33.607Z,54.25
2017-11-29T12:13:00.096Z,54.95
2017-11-29T12:15:26.507Z,54.00
2017-11-29T12:17:53.078Z,53.51
2017-11-29T12:20:19.589Z,53.54
2017-11-29T12:22:46.082Z,56.27
2017-11-29T12:25:12.502Z,53.72
2017-11-29T12:27:39.010Z,55.06
2017-11-29T12:30:05.458Z,57.64
2017-11-29T12:32:31.882Z,55.60
2017-11-29T12:34:58.382Z,55.31
2017-11-29T12:37:24.848Z,53.83
2017-11-29T12:39:51.281Z,53.57
2017-11-29T12:42:17.887Z,56.75
2017-11-29T12:44:44.495Z,55.53
2017-11-29T12:47:10.979Z,55.10
2017-11-29T12:49:49.752Z,54.50
2017-11-29T12:52:16.066Z,55.69
2017-11-29T12:54:42.473Z,56.62
2017-11-29T12:57:08.951Z,56.21
2017-11-29T12:59:35.362Z,56.02
2017-11-29T13:02:01.992Z,55.03
2017-11-29T13:04:28.667Z,55.44
2017-11-29T13:06:55.298Z,57.47
2017-11-29T13:09:21.838Z,56.37
2017-11-29T13:11:48.346Z,55.78
2017-11-29T13:14:14.801Z,56.33
2017-11-29T13:16:41.235Z,55.51
2017-11-29T13:19:07.769Z,58.18
2017-11-29T13:21:34.177Z,56.15
2017-11-29T13:24:00.757Z,56.16
2017-11-29T13:26:27.580Z,56.24
2017-11-29T13:28:54.043Z,58.27
2017-11-29T13:31:20.486Z,59.10
2017-11-29T13:33:46.966Z,58.24
2017-11-29T13:36:13.389Z,57.85
2017-11-29T13:38:39.970Z,57.53
2017-11-29T13:41:06.448Z,57.78
2017-11-29T13:43:32.874Z,57.68
2017-11-29T13:45:59.331Z,58.51
2017-11-29T13:48:26.128Z,58.07
2017-11-29T13:50:52.557Z,57.74
2017-11-29T13:53:19.010Z,57.21
2017-11-29T13:55:45.497Z,59.73
2017-11-29T13:58:11.935Z,59.20
2017-11-29T14:00:38.367Z,59.67
2017-11-29T14:03:04.841Z,59.01
2017-11-29T14:05:31.281Z,60.04
2017-11-29T14:07:57.734Z,60.16
2017-11-29T14:10:24.182Z,58.50
2017-11-29T14:12:50.515Z,59.92
2017-11-29T14:15:16.893Z,59.09
2017-11-29T14:17:43.279Z,60.64
2017-11-29T14:20:09.625Z,59.83
2017-11-29T14:22:35.987Z,60.63
2017-11-29T14:25:02.373Z,59.90
2017-11-29T14:27:28.757Z,60.47
2017-11-29T14:29:55.206Z,60.54
2017-11-29T14:32:21.758Z,61.00
2017-11-29T14:34:48.121Z,61.30
2017-11-29T14:37:14.486Z,61.77
2017-11-29T14:39:41.245Z,61.67
2017-11-29T14:42:07.642Z,61.91
2017-11-29T14:44:33.981Z,61.82
2017-11-29T14:47:00.375Z,61.02
2017-11-29T14:49:27.308Z,61.49
2017-11-29T14:51:54.864Z,61.10
2017-11-29T14:54:24.628Z,61.75
2017-11-29T14:56:53.048Z,61.17
2017-11-29T14:59:24.455Z,60.83
2017-11-29T15:01:51.940Z,60.32
2017-11-29T15:04:24.256Z,61.93
2017-11-29T15:06:53.925Z,60.70
2017-11-29T15:09:24.576Z,61.73
2017-11-29T15:11:53.456Z,62.67
2017-11-29T15:14:23.447Z,62.25
2017-11-29T15:16:50.062Z,61.09
2017-11-29T15:19:16.409Z,61.37
2017-11-29T15:21:42.794Z,62.55
2017-11-29T15:24:09.185Z,61.47
2017-11-29T15:26:35.518Z,61.86
2017-11-29T15:29:01.930Z,62.84
2017-11-29T15:31:28.356Z,61.73
2017-11-29T15:33:54.776Z,61.39
2017-11-29T15:36:21.241Z,62.29
2017-11-29T15:38:47.640Z,61.57
2017-11-29T15:41:14.038Z,61.77
2017-11-29T15:43:40.535Z,61.74
2017-11-29T15:46:07.177Z,61.96
2017-11-29T15:48:33.653Z,62.65
2017-11-29T15:51:00.157Z,62.62
2017-11-29T15:53:26.556Z,62.88
2017-11-29T15:55:52.933Z,63.08
2017-11-29T15:58:19.326Z,63.25
2017-11-29T16:00:45.750Z,63.67
2017-11-29T16:03:12.145Z,64.17
2017-11-29T16:05:38.570Z,64.27
2017-11-29T16:08:04.943Z,64.20
2017-11-29T16:10:31.353Z,63.96
2017-11-29T16:12:57.827Z,64.68
2017-11-29T16:15:24.219Z,64.76
2017-11-29T16:17:50.676Z,65.19
2017-11-29T16:20:17.153Z,64.98
2017-11-29T16:22:43.525Z,65.38
2017-11-29T16:25:09.955Z,65.25
2017-11-29T16:27:36.569Z,65.33
2017-11-29T16:30:03.030Z,65.31
2017-11-29T16:32:29.435Z,65.41
2017-11-29T16:34:55.891Z,65.61
2017-11-29T16:37:22.325Z,65.51
2017-11-29T16:39:48.758Z,65.47
2017-11-29T16:42:15.815Z,65.49
2017-11-29T16:44:42.982Z,65.80
2017-11-29T16:47:09.349Z,65.58
2017-11-29T16:49:35.787Z,65.45
2017-11-29T16:52:02.206Z,63.77
2017-11-29T16:54:28.598Z,64.00
2017-11-29T16:56:54.992Z,63.42
2017-11-29T16:59:21.406Z,63.79
2017-11-29T17:01:47.759Z,63.80
2017-11-29T17:04:14.220Z,64.31
2017-11-29T17:06:40.693Z,64.95
2017-11-29T17:09:07.059Z,65.24
2017-11-29T17:11:33.509Z,65.53
2017-11-29T17:13:59.977Z,65.72
2017-11-29T17:16:26.365Z,65.57
2017-11-29T17:18:52.808Z,65.26
2017-11-29T17:21:19.162Z,64.95
2017-11-29T17:23:45.559Z,64.68
2017-11-29T17:26:11.974Z,64.71
2017-11-29T17:28:38.345Z,64.77
2017-11-29T17:31:04.777Z,64.93
2017-11-29T17:33:31.238Z,64.86
2017-11-29T17:35:57.689Z,65.05
2017-11-29T17:38:24.079Z,65.75
2017-11-29T17:40:50.601Z,65.38
2017-11-29T17:43:16.968Z,65.67
2017-11-29T17:45:43.332Z,65.46
2017-11-29T17:48:09.735Z,65.61
2017-11-29T17:50:36.114Z,65.45
2017-11-29T17:53:02.497Z,66.03
2017-11-29T17:55:28.954Z,65.58
2017-11-29T17:57:55.497Z,65.55
2017-11-29T18:00:21.928Z,65.26
2017-11-29T18:02:48.410Z,65.38
2017-11-29T18:05:14.823Z,65.12
2017-11-29T18:07:41.199Z,65.21
2017-11-29T18:10:07.638Z,66.09
2017-11-29T18:12:34.066Z,65.35
2017-11-29T18:15:00.496Z,65.57
2017-11-29T18:17:27.036Z,65.60
2017-11-29T18:19:53.498Z,65.23
2017-11-29T18:22:19.940Z,65.02
2017-11-29T18:24:46.456Z,65.27
2017-11-29T18:27:12.850Z,66.12
2017-11-29T18:29:39.279Z,65.83
2017-11-29T18:32:05.750Z,65.64
2017-11-29T18:34:32.122Z,66.46
2017-11-29T18:36:58.542Z,66.42
2017-11-29T18:39:24.939Z,65.54
2017-11-29T18:41:52.083Z,65.73
2017-11-29T18:44:23.455Z,65.28
2017-11-29T18:46:52.861Z,65.04
2017-11-29T18:49:24.205Z,65.15
2017-11-29T18:51:53.119Z,65.50
2017-11-29T18:54:20.761Z,65.42
2017-11-29T18:56:48.527Z,65.87
2017-11-29T18:59:16.786Z,65.63
2017-11-29T19:01:44.243Z,65.45
2017-11-29T19:04:11.898Z,65.59
2017-11-29T19:06:38.435Z,65.74
2017-11-29T19:09:04.875Z,65.67
2017-11-29T19:11:31.288Z,65.29
2017-11-29T19:13:57.746Z,65.30
2017-11-29T19:16:24.206Z,64.72
2017-11-29T19:18:50.618Z,64.74
2017-11-29T19:21:17.110Z,64.48
2017-11-29T19:23:43.596Z,65.07
2017-11-29T19:26:10.011Z,65.27
2017-11-29T19:28:36.454Z,65.09
2017-11-29T19:31:02.949Z,64.58
2017-11-29T19:33:29.612Z,64.73
2017-11-29T19:35:56.054Z,64.96
2017-11-29T19:38:22.481Z,64.97
2017-11-29T19:40:48.910Z,65.27
2017-11-29T19:43:15.293Z,64.78
2017-11-29T19:45:41.699Z,64.93
2017-11-29T19:48:08.081Z,64.79
2017-11-29T19:50:34.519Z,65.41
2017-11-29T19:53:00.883Z,65.77
2017-11-29T19:55:27.253Z,65.66
2017-11-29T19:57:53.722Z,65.92
2017-11-29T20:00:20.081Z,65.75
2017-11-29T20:02:46.543Z,65.57
2017-11-29T20:05:13.087Z,65.58
2017-11-29T20:07:39.475Z,65.86
2017-11-29T20:10:05.976Z,65.68
2017-11-29T20:12:32.541Z,65.63
2017-11-29T20:14:59.033Z,65.08
2017-11-29T20:17:25.614Z,65.23
2017-11-29T20:19:52.083Z,65.62
2017-11-29T20:22:18.684Z,66.10
2017-11-29T20:24:45.663Z,65.73
2017-11-29T20:27:14.049Z,65.59
2017-11-29T20:29:41.902Z,67.84
2017-11-29T20:32:10.605Z,64.73
2017-11-29T20:34:39.198Z,64.95
2017-11-29T20:37:07.431Z,64.71
2017-11-29T20:39:34.423Z,64.54
2017-11-29T20:42:01.373Z,64.48
2017-11-29T20:44:27.882Z,65.01
2017-11-29T20:46:54.248Z,65.35
2017-11-29T20:49:20.721Z,65.04
2017-11-29T20:51:47.114Z,65.62
2017-11-29T20:54:13.500Z,66.07
2017-11-29T20:56:39.942Z,66.40
2017-11-29T20:59:06.298Z,65.68
2017-11-29T21:01:32.729Z,65.68
2017-11-29T21:03:59.247Z,66.31
2017-11-29T21:06:25.891Z,66.40
2017-11-29T21:08:52.308Z,66.67
2017-11-29T21:11:18.834Z,66.43
2017-11-29T21:13:45.219Z,66.50
2017-11-29T21:16:11.646Z,66.18
2017-11-29T21:18:38.128Z,65.98
2017-11-29T21:21:04.489Z,65.80
2017-11-29T21:23:30.840Z,66.32
2017-11-29T21:25:57.260Z,66.32
2017-11-29T21:28:23.681Z,66.27
2017-11-29T21:30:50.102Z,66.19
2017-11-29T21:33:16.495Z,66.62
2017-11-29T21:35:42.863Z,66.64
2017-11-29T21:38:09.423Z,66.57
2017-11-29T21:40:35.855Z,67.13
2017-11-29T21:43:02.206Z,67.03
2017-11-29T21:45:28.666Z,66.72
2017-11-29T21:47:55.100Z,67.30
2017-11-29T21:50:21.513Z,67.08
2017-11-29T21:52:47.925Z,66.82
2017-11-29T21:55:14.330Z,67.05
2017-11-29T21:57:40.667Z,67.29
2017-11-29T22:00:07.026Z,67.21
2017-11-29T22:02:34.230Z,67.24
2017-11-29T22:05:01.251Z,67.17
2017-11-29T22:07:27.660Z,66.69
2017-11-29T22:09:54.045Z,66.69
2017-11-29T22:12:20.380Z,66.78
2017-11-29T22:14:46.747Z,67.44
2017-11-29T22:17:13.183Z,67.99
2017-11-29T22:19:39.578Z,67.58
2017-11-29T22:22:06.005Z,67.60
2017-11-29T22:24:32.377Z,67.51
2017-11-29T22:26:58.764Z,67.43
2017-11-29T22:29:25.176Z,67.26
2017-11-29T22:31:51.586Z,67.23
2017-11-29T22:34:17.964Z,67.50
2017-11-29T22:36:44.342Z,67.73
2017-11-29T22:39:10.729Z,67.62
2017-11-29T22:41:37.105Z,67.84
2017-11-29T22:44:03.487Z,67.80
2017-11-29T22:46:29.905Z,67.21
2017-11-29T22:48:56.284Z,67.38
2017-11-29T22:51:22.788Z,67.83
2017-11-29T22:53:49.239Z,68.14
2017-11-29T22:56:15.586Z,67.94
2017-11-29T22:58:41.971Z,67.84
2017-11-29T23:01:08.379Z,68.07
2017-11-29T23:03:34.750Z,67.96
2017-11-29T23:06:01.101Z,67.80
2017-11-29T23:08:27.511Z,68.02
2017-11-29T23:10:53.870Z,68.07
2017-11-29T23:13:20.260Z,67.96
2017-11-29T23:15:46.647Z,68.44
2017-11-29T23:18:13.021Z,68.31
2017-11-29T23:20:39.390Z,68.58
2017-11-29T23:23:05.803Z,68.49
2017-11-29T23:25:32.246Z,68.13
2017-11-29T23:27:58.683Z,68.12
2017-11-29T23:30:25.089Z,67.75
2017-11-29T23:32:51.468Z,68.28
2017-11-29T23:35:17.841Z,67.46
2017-11-29T23:37:44.261Z,67.46
2017-11-29T23:40:10.609Z,66.98
2017-11-29T23:42:37.069Z,67.20
2017-11-29T23:45:03.533Z,67.55
2017-11-29T23:47:29.922Z,67.58
2017-11-29T23:49:56.336Z,67.31
2017-11-29T23:52:22.816Z,67.38
2017-11-29T23:54:49.205Z,67.61
2017-11-29T23:57:15.574Z,67.31
2017-11-29T23:59:41.965Z,66.71
